sensor_id;sensor_type;location;lat;lon;timestamp;P1;durP1;ratioP1;P2;durP2;ratioP2
8268;SDS011;4174;48.304;16.364;2022-09-29T00:00:53;3.47;;;0.80;;
8268;SDS011;4174;48.304;16.364;2022-09-29T00:06:59;4.50;;;0.80;;
8268;SDS011;4174;48.304;16.364;2022-09-29T00:13:03;4.93;;;0.90;;
8268;SDS011;4174;48.304;16.364;2022-09-29T00:19:13;9.95;;;1.20;;
8268;SDS011;4174;48.304;16.364;2022-09-29T00:25:32;3.90;;;0.90;;
8268;SDS011;4174;48.304;16.364;2022-09-29T00:31:38;3.90;;;1.00;;
8268;SDS011;4174;48.304;16.364;2022-09-29T00:37:45;3.60;;;0.90;;
8268;SDS011;4174;48.304;16.364;2022-09-29T00:43:53;3.60;;;0.97;;
8268;SDS011;4174;48.304;16.364;2022-09-29T00:50:13;3.70;;;0.90;;
8268;SDS011;4174;48.304;16.364;2022-09-29T00:56:25;3.40;;;0.87;;
8268;SDS011;4174;48.304;16.364;2022-09-29T01:02:31;3.53;;;0.93;;
8268;SDS011;4174;48.304;16.364;2022-09-29T01:08:37;4.10;;;1.10;;
8268;SDS011;4174;48.304;16.364;2022-09-29T01:15:00;4.72;;;1.27;;
8268;SDS011;4174;48.304;16.364;2022-09-29T01:21:18;3.72;;;1.00;;
8268;SDS011;4174;48.304;16.364;2022-09-29T01:27:54;4.10;;;1.12;;
8268;SDS011;4174;48.304;16.364;2022-09-29T01:33:59;4.30;;;1.15;;
8268;SDS011;4174;48.304;16.364;2022-09-29T01:40:11;4.57;;;1.10;;
8268;SDS011;4174;48.304;16.364;2022-09-29T01:46:20;3.87;;;1.10;;
8268;SDS011;4174;48.304;16.364;2022-09-29T01:52:27;4.40;;;1.00;;
8268;SDS011;4174;48.304;16.364;2022-09-29T01:58:38;4.40;;;1.10;;
8268;SDS011;4174;48.304;16.364;2022-09-29T02:04:46;3.80;;;1.00;;
8268;SDS011;4174;48.304;16.364;2022-09-29T02:10:54;4.07;;;1.00;;
8268;SDS011;4174;48.304;16.364;2022-09-29T02:17:06;4.00;;;1.10;;
8268;SDS011;4174;48.304;16.364;2022-09-29T02:23:09;4.50;;;1.13;;
8268;SDS011;4174;48.304;16.364;2022-09-29T02:29:16;4.30;;;1.40;;
8268;SDS011;4174;48.304;16.364;2022-09-29T02:35:28;4.95;;;1.60;;
8268;SDS011;4174;48.304;16.364;2022-09-29T02:41:59;5.25;;;1.60;;
8268;SDS011;4174;48.304;16.364;2022-09-29T02:48:30;5.30;;;1.50;;
8268;SDS011;4174;48.304;16.364;2022-09-29T03:01:20;5.47;;;1.60;;
8268;SDS011;4174;48.304;16.364;2022-09-29T03:07:24;4.40;;;1.50;;
8268;SDS011;4174;48.304;16.364;2022-09-29T03:13:31;6.62;;;1.67;;
8268;SDS011;4174;48.304;16.364;2022-09-29T03:19:35;4.40;;;1.60;;
8268;SDS011;4174;48.304;16.364;2022-09-29T03:25:48;5.85;;;1.85;;
8268;SDS011;4174;48.304;16.364;2022-09-29T03:31:53;4.93;;;1.80;;
8268;SDS011;4174;48.304;16.364;2022-09-29T03:38:00;6.20;;;2.10;;
8268;SDS011;4174;48.304;16.364;2022-09-29T03:44:08;8.23;;;2.30;;
8268;SDS011;4174;48.304;16.364;2022-09-29T03:50:13;5.93;;;2.27;;
8268;SDS011;4174;48.304;16.364;2022-09-29T03:56:24;6.77;;;2.60;;
8268;SDS011;4174;48.304;16.364;2022-09-29T04:02:30;6.70;;;2.97;;
8268;SDS011;4174;48.304;16.364;2022-09-29T04:08:38;7.68;;;2.90;;
8268;SDS011;4174;48.304;16.364;2022-09-29T04:14:45;7.40;;;3.20;;
8268;SDS011;4174;48.304;16.364;2022-09-29T04:20:52;7.20;;;3.10;;
8268;SDS011;4174;48.304;16.364;2022-09-29T04:26:59;8.00;;;3.20;;
8268;SDS011;4174;48.304;16.364;2022-09-29T04:33:06;7.70;;;3.03;;
8268;SDS011;4174;48.304;16.364;2022-09-29T04:39:14;7.25;;;3.20;;
8268;SDS011;4174;48.304;16.364;2022-09-29T04:45:20;6.87;;;2.80;;
8268;SDS011;4174;48.304;16.364;2022-09-29T04:51:26;6.57;;;2.77;;
8268;SDS011;4174;48.304;16.364;2022-09-29T05:03:47;6.72;;;2.80;;
8268;SDS011;4174;48.304;16.364;2022-09-29T05:10:03;8.10;;;3.20;;
8268;SDS011;4174;48.304;16.364;2022-09-29T05:16:08;7.10;;;2.90;;
8268;SDS011;4174;48.304;16.364;2022-09-29T05:22:14;7.00;;;2.90;;
8268;SDS011;4174;48.304;16.364;2022-09-29T05:28:22;7.10;;;2.90;;
8268;SDS011;4174;48.304;16.364;2022-09-29T05:40:50;7.15;;;3.20;;
8268;SDS011;4174;48.304;16.364;2022-09-29T05:46:57;7.53;;;3.20;;
8268;SDS011;4174;48.304;16.364;2022-09-29T05:59:19;7.80;;;2.97;;
8268;SDS011;4174;48.304;16.364;2022-09-29T06:05:24;7.77;;;2.90;;
8268;SDS011;4174;48.304;16.364;2022-09-29T06:11:33;7.63;;;3.00;;
8268;SDS011;4174;48.304;16.364;2022-09-29T06:17:38;7.80;;;2.90;;
8268;SDS011;4174;48.304;16.364;2022-09-29T06:23:49;7.00;;;2.75;;
8268;SDS011;4174;48.304;16.364;2022-09-29T06:29:52;6.73;;;2.70;;
8268;SDS011;4174;48.304;16.364;2022-09-29T06:36:15;7.03;;;2.87;;
8268;SDS011;4174;48.304;16.364;2022-09-29T06:42:30;5.30;;;2.20;;
8268;SDS011;4174;48.304;16.364;2022-09-29T06:48:37;8.50;;;3.00;;
8268;SDS011;4174;48.304;16.364;2022-09-29T06:54:43;11.97;;;5.20;;
8268;SDS011;4174;48.304;16.364;2022-09-29T07:00:51;8.60;;;3.20;;
8268;SDS011;4174;48.304;16.364;2022-09-29T07:06:57;6.57;;;2.60;;
8268;SDS011;4174;48.304;16.364;2022-09-29T07:13:06;6.10;;;2.20;;
8268;SDS011;4174;48.304;16.364;2022-09-29T07:19:14;7.05;;;2.60;;
8268;SDS011;4174;48.304;16.364;2022-09-29T07:25:21;5.43;;;2.00;;
8268;SDS011;4174;48.304;16.364;2022-09-29T07:31:27;5.40;;;2.00;;
8268;SDS011;4174;48.304;16.364;2022-09-29T07:37:33;7.45;;;2.20;;
8268;SDS011;4174;48.304;16.364;2022-09-29T07:43:45;6.03;;;2.20;;
8268;SDS011;4174;48.304;16.364;2022-09-29T07:49:50;6.23;;;2.40;;
8268;SDS011;4174;48.304;16.364;2022-09-29T07:56:10;4.97;;;1.80;;
8268;SDS011;4174;48.304;16.364;2022-09-29T08:02:19;5.10;;;1.80;;
8268;SDS011;4174;48.304;16.364;2022-09-29T08:08:34;4.43;;;1.60;;
8268;SDS011;4174;48.304;16.364;2022-09-29T08:42:05;5.37;;;1.90;;
8268;SDS011;4174;48.304;16.364;2022-09-29T08:48:18;5.73;;;1.70;;
8268;SDS011;4174;48.304;16.364;2022-09-29T09:01:33;5.47;;;1.80;;
8268;SDS011;4174;48.304;16.364;2022-09-29T09:07:55;4.72;;;1.70;;
8268;SDS011;4174;48.304;16.364;2022-09-29T09:21:40;4.18;;;1.40;;
8268;SDS011;4174;48.304;16.364;2022-09-29T09:28:18;4.60;;;1.40;;
8268;SDS011;4174;48.304;16.364;2022-09-29T09:34:34;5.30;;;1.40;;
8268;SDS011;4174;48.304;16.364;2022-09-29T09:40:49;4.40;;;1.30;;
8268;SDS011;4174;48.304;16.364;2022-09-29T09:46:57;5.17;;;1.40;;
8268;SDS011;4174;48.304;16.364;2022-09-29T10:13:05;4.15;;;1.20;;
8268;SDS011;4174;48.304;16.364;2022-09-29T10:19:56;3.92;;;1.30;;
8268;SDS011;4174;48.304;16.364;2022-09-29T10:39:41;4.37;;;1.20;;
8268;SDS011;4174;48.304;16.364;2022-09-29T10:53:05;4.60;;;1.30;;
8268;SDS011;4174;48.304;16.364;2022-09-29T10:59:23;4.05;;;1.27;;
8268;SDS011;4174;48.304;16.364;2022-09-29T11:05:50;4.70;;;1.30;;
8268;SDS011;4174;48.304;16.364;2022-09-29T12:33:06;4.20;;;0.90;;
8268;SDS011;4174;48.304;16.364;2022-09-29T13:13:00;4.72;;;1.10;;
8268;SDS011;4174;48.304;16.364;2022-09-29T13:20:04;4.12;;;1.30;;
8268;SDS011;4174;48.304;16.364;2022-09-29T13:27:15;4.22;;;1.00;;
8268;SDS011;4174;48.304;16.364;2022-09-29T13:33:35;4.30;;;1.30;;
8268;SDS011;4174;48.304;16.364;2022-09-29T13:46:32;5.03;;;1.30;;
8268;SDS011;4174;48.304;16.364;2022-09-29T13:52:48;3.80;;;0.80;;
8268;SDS011;4174;48.304;16.364;2022-09-29T13:58:59;4.57;;;0.80;;
8268;SDS011;4174;48.304;16.364;2022-09-29T14:05:37;3.65;;;0.80;;
8268;SDS011;4174;48.304;16.364;2022-09-29T14:11:48;3.40;;;0.90;;
8268;SDS011;4174;48.304;16.364;2022-09-29T14:18:01;4.63;;;1.30;;
8268;SDS011;4174;48.304;16.364;2022-09-29T15:05:27;5.18;;;1.67;;
8268;SDS011;4174;48.304;16.364;2022-09-29T16:11:35;4.73;;;1.40;;
8268;SDS011;4174;48.304;16.364;2022-09-29T16:31:47;9.93;;;3.40;;
8268;SDS011;4174;48.304;16.364;2022-09-29T16:44:39;7.28;;;2.67;;
8268;SDS011;4174;48.304;16.364;2022-09-29T16:50:47;8.93;;;2.30;;
8268;SDS011;4174;48.304;16.364;2022-09-29T16:57:24;5.90;;;1.90;;
8268;SDS011;4174;48.304;16.364;2022-09-29T17:03:14;6.33;;;1.83;;
8268;SDS011;4174;48.304;16.364;2022-09-29T17:09:21;7.60;;;1.73;;
8268;SDS011;4174;48.304;16.364;2022-09-29T17:28:47;6.50;;;2.47;;
8268;SDS011;4174;48.304;16.364;2022-09-29T17:34:58;12.53;;;6.03;;
8268;SDS011;4174;48.304;16.364;2022-09-29T18:01:22;10.67;;;4.43;;
8268;SDS011;4174;48.304;16.364;2022-09-29T18:14:03;6.80;;;3.00;;
8268;SDS011;4174;48.304;16.364;2022-09-29T18:26:29;6.18;;;2.67;;
8268;SDS011;4174;48.304;16.364;2022-09-29T18:32:34;8.25;;;3.30;;
8268;SDS011;4174;48.304;16.364;2022-09-29T18:38:40;6.77;;;2.77;;
8268;SDS011;4174;48.304;16.364;2022-09-29T18:51:08;8.20;;;3.60;;
8268;SDS011;4174;48.304;16.364;2022-09-29T18:57:20;14.03;;;6.00;;
8268;SDS011;4174;48.304;16.364;2022-09-29T19:03:26;16.90;;;7.68;;
8268;SDS011;4174;48.304;16.364;2022-09-29T19:09:32;17.43;;;7.30;;
8268;SDS011;4174;48.304;16.364;2022-09-29T19:15:40;15.25;;;6.15;;
8268;SDS011;4174;48.304;16.364;2022-09-29T19:21:48;13.45;;;5.75;;
8268;SDS011;4174;48.304;16.364;2022-09-29T19:28:00;17.33;;;7.40;;
8268;SDS011;4174;48.304;16.364;2022-09-29T19:34:08;21.83;;;9.67;;
8268;SDS011;4174;48.304;16.364;2022-09-29T19:40:16;17.90;;;8.63;;
8268;SDS011;4174;48.304;16.364;2022-09-29T19:46:31;18.77;;;9.10;;
8268;SDS011;4174;48.304;16.364;2022-09-29T19:52:40;16.77;;;7.20;;
8268;SDS011;4174;48.304;16.364;2022-09-29T19:58:48;14.97;;;7.20;;
8268;SDS011;4174;48.304;16.364;2022-09-29T20:05:26;13.87;;;6.20;;
8268;SDS011;4174;48.304;16.364;2022-09-29T20:11:41;13.03;;;6.53;;
8268;SDS011;4174;48.304;16.364;2022-09-29T20:18:02;15.30;;;6.60;;
8268;SDS011;4174;48.304;16.364;2022-09-29T20:24:14;13.00;;;6.10;;
8268;SDS011;4174;48.304;16.364;2022-09-29T20:30:28;11.43;;;5.57;;
8268;SDS011;4174;48.304;16.364;2022-09-29T20:36:33;13.07;;;5.40;;
8268;SDS011;4174;48.304;16.364;2022-09-29T20:42:46;11.85;;;5.40;;
8268;SDS011;4174;48.304;16.364;2022-09-29T20:48:53;14.90;;;6.23;;
8268;SDS011;4174;48.304;16.364;2022-09-29T20:55:01;11.97;;;5.23;;
8268;SDS011;4174;48.304;16.364;2022-09-29T21:01:12;9.85;;;5.03;;
8268;SDS011;4174;48.304;16.364;2022-09-29T21:07:17;12.05;;;5.20;;
8268;SDS011;4174;48.304;16.364;2022-09-29T21:13:46;11.93;;;4.95;;
8268;SDS011;4174;48.304;16.364;2022-09-29T21:19:50;11.18;;;4.70;;
8268;SDS011;4174;48.304;16.364;2022-09-29T21:25:56;9.93;;;4.30;;
8268;SDS011;4174;48.304;16.364;2022-09-29T21:32:05;9.27;;;3.67;;
8268;SDS011;4174;48.304;16.364;2022-09-29T21:38:19;10.05;;;4.10;;
8268;SDS011;4174;48.304;16.364;2022-09-29T21:44:28;9.05;;;3.70;;
8268;SDS011;4174;48.304;16.364;2022-09-29T21:50:38;9.60;;;3.80;;
8268;SDS011;4174;48.304;16.364;2022-09-29T21:56:55;8.20;;;3.35;;
8268;SDS011;4174;48.304;16.364;2022-09-29T22:03:02;8.20;;;3.30;;
8268;SDS011;4174;48.304;16.364;2022-09-29T22:09:17;8.10;;;3.57;;
8268;SDS011;4174;48.304;16.364;2022-09-29T22:15:24;8.43;;;3.80;;
8268;SDS011;4174;48.304;16.364;2022-09-29T22:21:30;10.65;;;3.58;;
8268;SDS011;4174;48.304;16.364;2022-09-29T22:27:51;9.55;;;3.70;;
8268;SDS011;4174;48.304;16.364;2022-09-29T22:33:57;8.90;;;3.63;;
8268;SDS011;4174;48.304;16.364;2022-09-29T22:40:04;10.57;;;3.92;;
8268;SDS011;4174;48.304;16.364;2022-09-29T22:46:12;9.97;;;3.90;;
8268;SDS011;4174;48.304;16.364;2022-09-29T22:52:28;9.87;;;4.27;;
8268;SDS011;4174;48.304;16.364;2022-09-29T22:58:38;9.00;;;4.15;;
8268;SDS011;4174;48.304;16.364;2022-09-29T23:04:42;12.60;;;3.70;;
8268;SDS011;4174;48.304;16.364;2022-09-29T23:10:47;7.50;;;3.40;;
8268;SDS011;4174;48.304;16.364;2022-09-29T23:17:00;8.27;;;3.53;;
8268;SDS011;4174;48.304;16.364;2022-09-29T23:29:52;7.72;;;3.47;;
8268;SDS011;4174;48.304;16.364;2022-09-29T23:36:09;9.20;;;3.73;;
8268;SDS011;4174;48.304;16.364;2022-09-29T23:42:16;8.50;;;3.60;;
8268;SDS011;4174;48.304;16.364;2022-09-29T23:48:22;7.83;;;3.40;;
8268;SDS011;4174;48.304;16.364;2022-09-29T23:54:50;9.35;;;3.83;;
